createdAt,value
2023-04-16T00:00:23.453Z,72.48
2023-04-16T00:02:50.314Z,72.85
2023-04-16T00:05:17.117Z,73.81
2023-04-16T00:07:44.003Z,78.53
2023-04-16T00:10:10.809Z,80.26
2023-04-16T00:12:37.423Z,77.98
2023-04-16T00:15:07.100Z,73.94
2023-04-16T00:17:33.846Z,74.15
2023-04-16T00:20:00.576Z,73.39
2023-04-16T00:22:27.257Z,74.12
2023-04-16T00:24:53.940Z,74.28
2023-04-16T00:27:20.577Z,72.89
2023-04-16T00:29:47.235Z,72.64
2023-04-16T00:32:13.959Z,74.14
2023-04-16T00:34:40.582Z,72.64
2023-04-16T00:37:07.261Z,71.83
2023-04-16T00:39:33.967Z,71.40
2023-04-16T00:42:00.688Z,70.88
2023-04-16T00:44:27.450Z,71.52
2023-04-16T00:46:55.646Z,71.90
2023-04-16T00:49:23.099Z,73.03
2023-04-16T00:51:50.623Z,77.34
2023-04-16T00:54:18.729Z,75.48
2023-04-16T00:56:45.421Z,72.71
2023-04-16T00:59:12.143Z,70.99
2023-04-16T01:01:38.928Z,69.83
2023-04-16T01:04:05.874Z,69.84
2023-04-16T01:06:32.575Z,74.62
2023-04-16T01:08:59.167Z,76.57
2023-04-16T01:11:25.797Z,76.16
2023-04-16T01:13:52.488Z,77.98
2023-04-16T01:16:19.236Z,78.55
2023-04-16T01:18:45.903Z,75.11
2023-04-16T01:21:12.644Z,73.12
2023-04-16T01:23:39.635Z,71.24
2023-04-16T01:26:06.301Z,70.30
2023-04-16T01:28:33.023Z,71.80
2023-04-16T01:30:59.740Z,74.57
2023-04-16T01:33:26.415Z,71.98
2023-04-16T01:35:53.074Z,72.16
2023-04-16T01:38:19.684Z,70.03
2023-04-16T01:40:46.300Z,69.98
2023-04-16T01:43:12.992Z,69.56
2023-04-16T01:45:39.596Z,69.19
2023-04-16T01:48:06.525Z,68.91
2023-04-16T01:50:33.582Z,71.24
2023-04-16T01:53:00.291Z,69.58
2023-04-16T01:55:26.965Z,69.53
2023-04-16T01:57:53.704Z,68.46
2023-04-16T02:00:20.431Z,72.61
2023-04-16T02:02:47.523Z,72.81
2023-04-16T02:05:14.425Z,71.87
2023-04-16T02:07:41.390Z,71.37
2023-04-16T02:10:08.578Z,70.06
2023-04-16T02:12:35.233Z,73.06
2023-04-16T02:15:03.484Z,70.69
2023-04-16T02:17:30.508Z,68.88
2023-04-16T02:19:57.252Z,68.74
2023-04-16T02:22:23.989Z,69.14
2023-04-16T02:24:51.093Z,72.10
2023-04-16T02:27:17.746Z,71.33
2023-04-16T02:29:44.366Z,70.31
2023-04-16T02:32:11.194Z,72.13
2023-04-16T02:34:37.887Z,71.59
2023-04-16T02:37:04.508Z,71.74
2023-04-16T02:39:31.091Z,70.83
2023-04-16T02:41:57.732Z,71.11
2023-04-16T02:44:24.412Z,71.27
2023-04-16T02:46:51.049Z,73.74
2023-04-16T02:49:17.764Z,72.08
2023-04-16T02:51:44.492Z,71.02
2023-04-16T02:54:11.628Z,70.86
2023-04-16T02:56:38.259Z,70.29
2023-04-16T02:59:04.916Z,71.49
2023-04-16T03:01:31.571Z,71.38
2023-04-16T03:03:58.224Z,70.74
2023-04-16T03:06:24.862Z,69.07
2023-04-16T03:08:51.674Z,68.13
2023-04-16T03:11:18.432Z,67.72
2023-04-16T03:13:45.020Z,67.29
2023-04-16T03:16:11.786Z,66.97
2023-04-16T03:18:38.516Z,66.92
2023-04-16T03:21:05.393Z,67.22
2023-04-16T03:23:32.144Z,66.56
2023-04-16T03:25:58.743Z,69.83
2023-04-16T03:28:25.370Z,68.71
2023-04-16T03:30:53.189Z,70.87
2023-04-16T03:33:20.913Z,68.59
2023-04-16T03:35:47.517Z,69.08
2023-04-16T03:38:14.151Z,69.52
2023-04-16T03:40:40.742Z,68.66
2023-04-16T03:43:07.339Z,70.48
2023-04-16T03:45:33.980Z,74.17
2023-04-16T03:48:00.598Z,74.94
2023-04-16T03:50:27.255Z,76.87
2023-04-16T03:52:53.880Z,72.61
2023-04-16T03:55:21.721Z,70.34
2023-04-16T03:57:48.360Z,71.35
2023-04-16T04:00:14.993Z,72.08
2023-04-16T04:02:41.756Z,70.85
2023-04-16T04:05:08.897Z,71.59
2023-04-16T04:07:35.560Z,69.65
2023-04-16T04:10:02.254Z,69.29
2023-04-16T04:12:29.437Z,69.46
2023-04-16T04:14:56.027Z,69.28
2023-04-16T04:17:22.777Z,68.16
2023-04-16T04:20:00.456Z,67.56
2023-04-16T04:22:28.205Z,67.95
2023-04-16T04:24:54.834Z,67.88
2023-04-16T04:27:21.480Z,67.09
2023-04-16T04:29:48.107Z,66.75
2023-04-16T04:32:14.702Z,66.76
2023-04-16T04:34:41.315Z,66.68
2023-04-16T04:37:07.954Z,66.46
2023-04-16T04:39:34.557Z,65.65
2023-04-16T04:42:01.203Z,65.61
2023-04-16T04:44:27.863Z,65.72
2023-04-16T04:46:54.497Z,65.90
2023-04-16T04:49:21.119Z,65.88
2023-04-16T04:51:48.228Z,66.33
2023-04-16T04:54:14.840Z,66.23
2023-04-16T04:56:41.440Z,66.02
2023-04-16T04:59:08.344Z,65.80
2023-04-16T05:01:35.210Z,65.74
2023-04-16T05:04:02.005Z,66.81
2023-04-16T05:06:29.625Z,66.23
2023-04-16T05:08:56.432Z,66.67
2023-04-16T05:11:23.217Z,66.86
2023-04-16T05:13:49.868Z,67.55
2023-04-16T05:16:16.539Z,66.76
2023-04-16T05:18:43.195Z,66.33
2023-04-16T05:21:09.900Z,67.10
2023-04-16T05:23:36.634Z,66.39
2023-04-16T05:26:03.413Z,66.75
2023-04-16T05:28:30.716Z,66.68
2023-04-16T05:30:57.546Z,66.82
2023-04-16T05:33:25.235Z,66.37
2023-04-16T05:35:51.851Z,66.15
2023-04-16T05:38:18.470Z,65.17
2023-04-16T05:40:45.092Z,64.85
2023-04-16T05:43:11.704Z,65.48
2023-04-16T05:45:38.313Z,66.88
2023-04-16T05:48:05.876Z,65.96
2023-04-16T05:50:32.513Z,65.74
2023-04-16T05:52:59.105Z,65.37
2023-04-16T05:55:25.701Z,65.91
2023-04-16T05:57:52.291Z,65.85
2023-04-16T06:00:19.000Z,64.75
2023-04-16T06:02:45.683Z,64.72
2023-04-16T06:05:12.464Z,64.13
2023-04-16T06:07:39.124Z,64.36
2023-04-16T06:10:06.417Z,64.32
2023-04-16T06:12:33.046Z,64.40
2023-04-16T06:15:00.297Z,64.02
2023-04-16T06:17:27.090Z,64.56
2023-04-16T06:19:53.827Z,64.15
2023-04-16T06:22:20.567Z,64.34
2023-04-16T06:24:47.244Z,63.24
2023-04-16T06:27:13.838Z,62.78
2023-04-16T06:29:41.829Z,63.49
2023-04-16T06:32:09.121Z,63.27
2023-04-16T06:34:36.162Z,63.57
2023-04-16T06:37:02.791Z,64.24
2023-04-16T06:39:29.830Z,62.42
2023-04-16T06:41:56.618Z,62.06
2023-04-16T06:44:23.279Z,62.39
2023-04-16T06:46:50.843Z,62.44
2023-04-16T06:49:17.551Z,61.45
2023-04-16T06:51:44.352Z,62.01
2023-04-16T06:54:11.012Z,62.14
2023-04-16T06:56:37.600Z,62.39
2023-04-16T06:59:04.733Z,61.90
2023-04-16T07:01:31.470Z,61.49
2023-04-16T07:03:58.586Z,62.26
2023-04-16T07:06:25.586Z,62.18
2023-04-16T07:08:52.247Z,62.34
2023-04-16T07:11:19.205Z,63.15
2023-04-16T07:13:45.863Z,63.62
2023-04-16T07:16:12.490Z,63.51
2023-04-16T07:18:39.132Z,63.62
2023-04-16T07:21:05.756Z,64.42
2023-04-16T07:23:32.404Z,66.07
2023-04-16T07:25:59.072Z,71.42
2023-04-16T07:28:25.673Z,68.84
2023-04-16T07:30:52.300Z,69.80
2023-04-16T07:33:19.014Z,68.60
2023-04-16T07:35:45.696Z,67.61
2023-04-16T07:38:12.360Z,66.88
2023-04-16T07:40:39.127Z,67.59
2023-04-16T07:43:05.745Z,68.62
2023-04-16T07:45:32.348Z,67.58
2023-04-16T07:47:58.965Z,65.86
2023-04-16T07:50:25.615Z,65.40
2023-04-16T07:52:52.250Z,67.28
2023-04-16T07:55:20.320Z,67.74
2023-04-16T07:57:46.958Z,66.67
2023-04-16T08:00:14.034Z,68.79
2023-04-16T08:02:41.725Z,68.45
2023-04-16T08:05:08.532Z,66.43
2023-04-16T08:07:35.196Z,64.80
2023-04-16T08:10:02.122Z,65.08
2023-04-16T08:12:29.364Z,65.75
2023-04-16T08:14:56.000Z,66.28
2023-04-16T08:17:22.837Z,67.56
2023-04-16T08:19:49.733Z,67.26
2023-04-16T08:22:16.946Z,66.39
2023-04-16T08:24:43.657Z,65.98
2023-04-16T08:27:18.533Z,65.69
2023-04-16T08:29:48.034Z,63.26
2023-04-16T08:32:14.690Z,61.90
2023-04-16T08:34:42.260Z,61.79
2023-04-16T08:37:09.691Z,62.21
2023-04-16T08:39:36.284Z,62.58
2023-04-16T08:42:05.921Z,63.18
2023-04-16T08:44:35.103Z,64.18
2023-04-16T08:47:01.812Z,64.13
2023-04-16T08:49:28.523Z,63.25
2023-04-16T08:51:57.244Z,63.45
2023-04-16T08:54:30.166Z,62.46
2023-04-16T08:56:59.142Z,62.96
2023-04-16T08:59:26.274Z,63.11
2023-04-16T09:01:57.677Z,62.93
2023-04-16T09:04:27.587Z,62.40
2023-04-16T09:06:56.567Z,63.00
2023-04-16T09:09:23.616Z,63.25
2023-04-16T09:11:52.411Z,63.84
2023-04-16T09:14:19.772Z,64.31
2023-04-16T09:16:47.535Z,64.20
2023-04-16T09:19:15.457Z,63.88
2023-04-16T09:21:45.594Z,64.30
2023-04-16T09:24:12.394Z,65.95
2023-04-16T09:26:39.067Z,66.08
2023-04-16T09:29:05.708Z,67.06
2023-04-16T09:31:33.571Z,66.71
2023-04-16T09:34:06.645Z,65.68
2023-04-16T09:36:34.654Z,64.69
2023-04-16T09:39:02.487Z,66.12
2023-04-16T09:41:31.423Z,66.12
2023-04-16T09:44:02.532Z,65.19
2023-04-16T09:46:40.602Z,66.56
2023-04-16T09:49:16.071Z,66.61
2023-04-16T09:51:45.941Z,65.64
2023-04-16T09:54:12.668Z,64.60
2023-04-16T09:56:44.691Z,64.09
2023-04-16T09:59:24.347Z,62.77
2023-04-16T10:01:51.264Z,61.58
2023-04-16T10:04:18.069Z,61.08
2023-04-16T10:06:44.720Z,61.64
2023-04-16T10:09:11.550Z,62.71
2023-04-16T10:11:39.723Z,66.09
2023-04-16T10:14:08.404Z,65.45
2023-04-16T10:16:38.863Z,65.71
2023-04-16T10:19:05.618Z,63.55
2023-04-16T10:21:32.676Z,63.38
2023-04-16T10:24:08.000Z,64.75
2023-04-16T10:26:35.974Z,64.18
2023-04-16T10:29:09.804Z,65.84
2023-04-16T10:31:39.620Z,66.34
2023-04-16T10:34:10.511Z,65.20
2023-04-16T10:36:38.032Z,64.34
2023-04-16T10:39:11.036Z,63.17
2023-04-16T10:41:38.548Z,63.20
2023-04-16T10:44:10.385Z,62.85
2023-04-16T10:46:39.318Z,62.99
2023-04-16T10:49:23.043Z,61.90
2023-04-16T10:51:55.398Z,62.38
2023-04-16T10:54:30.379Z,62.80
2023-04-16T10:57:00.793Z,66.05
2023-04-16T10:59:34.872Z,64.66
2023-04-16T11:02:08.047Z,63.70
2023-04-16T11:04:37.230Z,65.73
2023-04-16T11:07:12.992Z,64.96
2023-04-16T11:10:07.377Z,65.25
2023-04-16T11:12:46.947Z,65.88
2023-04-16T11:15:15.453Z,64.79
2023-04-16T11:17:50.316Z,63.98
2023-04-16T11:20:25.629Z,64.80
2023-04-16T11:22:54.619Z,62.60
2023-04-16T11:25:26.244Z,61.82
2023-04-16T11:27:53.774Z,61.48
2023-04-16T11:30:29.586Z,63.96
2023-04-16T11:32:56.453Z,65.39
2023-04-16T11:35:23.214Z,64.50
2023-04-16T11:37:49.852Z,61.20
2023-04-16T11:40:16.479Z,61.20
2023-04-16T11:42:44.329Z,60.93
2023-04-16T11:45:12.414Z,60.61
2023-04-16T11:47:50.587Z,62.90
2023-04-16T11:50:23.998Z,60.43
2023-04-16T11:52:53.043Z,61.91
2023-04-16T11:55:20.044Z,60.61
2023-04-16T11:57:47.234Z,58.37
2023-04-16T12:00:14.569Z,56.79
2023-04-16T12:02:46.369Z,56.68
2023-04-16T12:05:33.414Z,57.43
2023-04-16T12:08:03.782Z,59.33
2023-04-16T12:10:32.361Z,61.16
2023-04-16T12:13:15.267Z,62.36
2023-04-16T12:15:59.874Z,60.98
2023-04-16T12:18:26.709Z,59.08
2023-04-16T12:20:53.591Z,57.55
2023-04-16T12:23:28.613Z,58.22
2023-04-16T12:25:56.559Z,57.97
2023-04-16T12:28:34.638Z,57.62
2023-04-16T12:31:02.718Z,58.67
2023-04-16T12:33:30.063Z,58.60
2023-04-16T12:35:56.937Z,57.88
2023-04-16T12:38:24.721Z,61.26
2023-04-16T12:40:51.911Z,60.46
2023-04-16T12:43:18.658Z,59.40
2023-04-16T12:45:45.476Z,60.15
2023-04-16T12:48:12.167Z,60.25
2023-04-16T12:50:38.809Z,59.80
2023-04-16T12:53:05.465Z,59.28
2023-04-16T12:55:32.201Z,60.00
2023-04-16T12:57:58.891Z,60.20
2023-04-16T13:00:25.585Z,58.96
2023-04-16T13:02:52.490Z,61.02
2023-04-16T13:05:19.367Z,59.24
2023-04-16T13:07:46.310Z,58.09
2023-04-16T13:10:13.080Z,57.95
2023-04-16T13:12:39.839Z,56.69
2023-04-16T13:15:06.919Z,56.31
2023-04-16T13:17:33.694Z,56.70
2023-04-16T13:20:00.344Z,57.25
2023-04-16T13:22:27.251Z,56.82
2023-04-16T13:24:53.873Z,56.66
2023-04-16T13:27:20.477Z,57.11
2023-04-16T13:29:47.130Z,56.59
2023-04-16T13:32:13.880Z,56.02
2023-04-16T13:34:40.916Z,57.12
2023-04-16T13:37:07.588Z,56.76
2023-04-16T13:39:34.343Z,55.98
2023-04-16T13:42:01.137Z,55.96
2023-04-16T13:44:27.752Z,56.07
2023-04-16T13:46:54.533Z,56.28
2023-04-16T13:49:21.242Z,56.16
2023-04-16T13:51:47.851Z,54.81
2023-04-16T13:54:14.496Z,56.86
2023-04-16T13:56:41.292Z,56.19
2023-04-16T13:59:08.241Z,55.62
2023-04-16T14:01:35.083Z,54.77
2023-04-16T14:04:01.937Z,56.16
2023-04-16T14:06:28.600Z,55.58
2023-04-16T14:08:55.212Z,55.16
2023-04-16T14:11:21.848Z,55.93
2023-04-16T14:13:48.862Z,57.46
2023-04-16T14:16:15.465Z,58.68
2023-04-16T14:18:42.097Z,59.13
2023-04-16T14:21:09.149Z,58.19
2023-04-16T14:23:35.783Z,59.58
2023-04-16T14:26:02.593Z,58.16
2023-04-16T14:28:29.184Z,59.46
2023-04-16T14:30:55.805Z,61.33
2023-04-16T14:33:22.489Z,62.90
2023-04-16T14:35:49.162Z,62.99
2023-04-16T14:38:15.889Z,66.38
2023-04-16T14:40:42.548Z,66.56
2023-04-16T14:43:09.186Z,69.43
2023-04-16T14:45:35.820Z,69.00
2023-04-16T14:48:02.541Z,68.29
2023-04-16T14:50:29.169Z,67.70
2023-04-16T14:52:55.889Z,67.62
2023-04-16T14:55:22.747Z,67.69
2023-04-16T14:57:49.361Z,66.28
2023-04-16T15:00:16.329Z,63.01
2023-04-16T15:02:43.194Z,63.19
2023-04-16T15:05:10.152Z,63.57
2023-04-16T15:07:36.947Z,62.46
2023-04-16T15:10:03.792Z,63.40
2023-04-16T15:12:30.386Z,61.33
2023-04-16T15:14:56.989Z,62.95
2023-04-16T15:17:23.811Z,62.36
2023-04-16T15:19:50.615Z,63.75
2023-04-16T15:22:17.254Z,63.90
2023-04-16T15:24:44.115Z,63.19
2023-04-16T15:27:11.889Z,59.60
2023-04-16T15:29:38.658Z,58.80
2023-04-16T15:32:05.392Z,56.89
2023-04-16T15:34:32.176Z,57.87
2023-04-16T15:36:59.112Z,61.87
2023-04-16T15:39:25.726Z,62.24
2023-04-16T15:44:22.116Z,64.14
2023-04-16T15:46:48.968Z,63.94
2023-04-16T15:49:15.669Z,63.27
2023-04-16T15:51:42.324Z,63.13
2023-04-16T15:54:09.072Z,61.31
2023-04-16T15:56:35.765Z,64.28
2023-04-16T15:59:02.993Z,63.80
2023-04-16T16:01:29.696Z,62.67
2023-04-16T16:03:56.572Z,63.05
2023-04-16T16:06:23.471Z,64.09
2023-04-16T16:08:50.125Z,65.23
2023-04-16T16:11:16.740Z,62.51
2023-04-16T16:13:43.358Z,61.88
2023-04-16T16:16:11.058Z,61.31
2023-04-16T16:18:38.004Z,62.98
2023-04-16T16:21:04.700Z,63.63
2023-04-16T16:23:31.290Z,63.92
2023-04-16T16:25:57.946Z,62.88
2023-04-16T16:28:24.618Z,62.45
2023-04-16T16:30:51.226Z,62.79
2023-04-16T16:33:17.965Z,64.24
2023-04-16T16:35:44.616Z,65.19
2023-04-16T16:38:11.383Z,65.68
2023-04-16T16:40:38.878Z,65.66
2023-04-16T16:43:07.921Z,67.10
2023-04-16T16:45:34.723Z,67.18
2023-04-16T16:48:01.494Z,65.49
2023-04-16T16:50:32.738Z,65.24
2023-04-16T16:52:59.929Z,66.22
2023-04-16T16:55:26.825Z,66.04
2023-04-16T16:57:53.782Z,64.92
2023-04-16T17:00:20.765Z,66.04
2023-04-16T17:02:47.930Z,64.13
2023-04-16T17:05:14.704Z,62.39
2023-04-16T17:07:41.487Z,61.45
2023-04-16T17:10:09.013Z,64.46
2023-04-16T17:12:35.733Z,63.56
2023-04-16T17:15:02.536Z,65.48
2023-04-16T17:17:29.313Z,66.37
2023-04-16T17:19:55.981Z,68.69
2023-04-16T17:22:22.596Z,67.58
2023-04-16T17:24:49.193Z,66.91
2023-04-16T17:27:15.832Z,67.73
2023-04-16T17:29:42.443Z,68.29
2023-04-16T17:32:09.112Z,68.24
2023-04-16T17:34:35.751Z,66.44
2023-04-16T17:37:02.405Z,65.40
2023-04-16T17:39:29.080Z,63.98
2023-04-16T17:41:55.765Z,63.51
2023-04-16T17:44:22.380Z,62.99
2023-04-16T17:46:48.996Z,60.35
2023-04-16T17:49:15.616Z,60.13
2023-04-16T17:51:42.233Z,59.80
2023-04-16T17:54:08.985Z,59.29
2023-04-16T17:56:35.780Z,60.76
2023-04-16T17:59:02.379Z,64.90
2023-04-16T18:01:29.072Z,66.06
2023-04-16T18:03:56.055Z,67.63
2023-04-16T18:06:22.833Z,67.86
2023-04-16T18:08:49.472Z,67.44
2023-04-16T18:11:16.077Z,64.91
2023-04-16T18:13:42.656Z,62.98
2023-04-16T18:16:17.255Z,64.75
2023-04-16T18:18:44.822Z,64.56
2023-04-16T18:21:11.688Z,66.96
2023-04-16T18:23:38.399Z,68.67
2023-04-16T18:26:07.464Z,68.74
2023-04-16T18:28:34.990Z,69.21
2023-04-16T18:31:01.649Z,70.32
2023-04-16T18:33:49.961Z,71.22
2023-04-16T18:36:15.039Z,70.80
2023-04-16T18:38:53.007Z,70.79
2023-04-16T18:41:26.561Z,70.38
2023-04-16T18:43:53.177Z,71.39
2023-04-16T18:46:19.856Z,71.23
2023-04-16T18:48:46.550Z,71.46
2023-04-16T18:51:14.905Z,71.90
2023-04-16T18:53:42.868Z,73.29
2023-04-16T18:56:09.613Z,74.28
2023-04-16T18:58:36.262Z,73.76
2023-04-16T19:01:02.945Z,72.41
2023-04-16T19:03:29.656Z,71.50
2023-04-16T19:05:56.386Z,74.09
2023-04-16T19:08:22.991Z,74.43
2023-04-16T19:10:50.264Z,75.56
2023-04-16T19:13:16.958Z,74.11
2023-04-16T19:15:43.563Z,72.92
2023-04-16T19:18:10.172Z,72.95
2023-04-16T19:20:37.646Z,72.72
2023-04-16T19:23:05.044Z,73.45
2023-04-16T19:25:32.357Z,70.16
2023-04-16T19:27:59.279Z,72.43
2023-04-16T19:30:25.954Z,71.07
2023-04-16T19:32:54.668Z,73.25
2023-04-16T19:35:22.230Z,72.20
2023-04-16T19:37:50.689Z,72.31
2023-04-16T19:40:17.380Z,73.79
2023-04-16T19:42:43.998Z,72.73
2023-04-16T19:45:10.691Z,72.20
2023-04-16T19:47:37.570Z,73.35
2023-04-16T19:50:04.415Z,73.53
2023-04-16T19:52:32.058Z,73.85
2023-04-16T19:54:58.672Z,71.18
2023-04-16T19:57:25.296Z,71.58
2023-04-16T19:59:53.487Z,71.65
2023-04-16T20:02:21.331Z,69.76
2023-04-16T20:04:47.995Z,67.51
2023-04-16T20:07:14.614Z,67.87
2023-04-16T20:09:41.221Z,69.11
2023-04-16T20:12:07.879Z,70.10
2023-04-16T20:14:34.500Z,72.02
2023-04-16T20:17:01.176Z,73.63
2023-04-16T20:19:27.961Z,73.44
2023-04-16T20:21:54.602Z,74.21
2023-04-16T20:24:21.210Z,72.19
2023-04-16T20:26:47.805Z,70.16
2023-04-16T20:29:14.396Z,71.10
2023-04-16T20:31:41.102Z,69.81
2023-04-16T20:34:07.725Z,71.59
2023-04-16T20:36:34.345Z,70.90
2023-04-16T20:39:00.940Z,69.75
2023-04-16T20:41:28.419Z,71.03
2023-04-16T20:43:55.227Z,72.99
2023-04-16T20:46:22.678Z,71.71
2023-04-16T20:48:50.930Z,71.18
2023-04-16T20:51:17.624Z,72.10
2023-04-16T20:53:44.326Z,72.55
2023-04-16T20:56:10.945Z,72.08
2023-04-16T20:58:37.559Z,72.65
2023-04-16T21:01:04.235Z,72.71
2023-04-16T21:03:30.996Z,72.17
2023-04-16T21:05:57.676Z,72.20
2023-04-16T21:08:24.342Z,72.22
2023-04-16T21:10:50.992Z,72.54
2023-04-16T21:13:17.657Z,70.30
2023-04-16T21:15:45.114Z,71.90
2023-04-16T21:18:12.562Z,72.67
2023-04-16T21:20:39.876Z,73.30
2023-04-16T21:23:06.713Z,73.14
2023-04-16T21:25:33.353Z,73.77
2023-04-16T21:27:59.994Z,74.34
2023-04-16T21:30:26.636Z,73.86
2023-04-16T21:32:53.404Z,74.13
2023-04-16T21:35:20.011Z,74.82
2023-04-16T21:37:46.629Z,75.12
2023-04-16T21:40:13.554Z,75.27
2023-04-16T21:42:40.187Z,74.73
2023-04-16T21:45:10.254Z,74.93
2023-04-16T21:47:37.441Z,75.48
2023-04-16T21:50:04.630Z,76.01
2023-04-16T21:52:31.351Z,75.55
2023-04-16T21:54:58.841Z,75.54
2023-04-16T21:57:25.553Z,76.25
2023-04-16T21:59:52.206Z,76.23
2023-04-16T22:02:18.931Z,75.38
2023-04-16T22:04:45.664Z,74.70
2023-04-16T22:07:12.265Z,75.32
2023-04-16T22:09:38.957Z,74.69
2023-04-16T22:12:05.895Z,75.30
2023-04-16T22:14:35.096Z,74.98
2023-04-16T22:17:02.227Z,74.41
2023-04-16T22:19:29.200Z,75.02
2023-04-16T22:21:58.850Z,74.75
2023-04-16T22:24:25.553Z,74.75
2023-04-16T22:26:52.489Z,75.30
2023-04-16T22:29:19.213Z,73.60
2023-04-16T22:31:46.238Z,74.16
2023-04-16T22:34:12.900Z,73.98
2023-04-16T22:36:39.536Z,74.92
2023-04-16T22:39:06.151Z,73.68
2023-04-16T22:41:32.825Z,73.73
2023-04-16T22:43:59.426Z,74.59
2023-04-16T22:46:26.285Z,74.58
2023-04-16T22:48:53.076Z,74.67
2023-04-16T22:51:19.675Z,74.99
2023-04-16T22:53:46.325Z,74.47
2023-04-16T22:56:12.997Z,74.11
2023-04-16T22:58:42.677Z,74.20
2023-04-16T23:01:09.355Z,74.03
2023-04-16T23:03:36.199Z,74.48
2023-04-16T23:06:02.922Z,74.76
2023-04-16T23:08:29.759Z,74.20
2023-04-16T23:10:59.057Z,74.51
2023-04-16T23:13:25.792Z,75.46
2023-04-16T23:15:52.473Z,75.33
2023-04-16T23:18:19.202Z,74.38
2023-04-16T23:20:45.814Z,75.83
2023-04-16T23:23:12.425Z,75.57
2023-04-16T23:25:41.112Z,75.90
2023-04-16T23:28:07.818Z,76.01
2023-04-16T23:30:34.439Z,75.59
2023-04-16T23:33:01.147Z,76.12
2023-04-16T23:35:27.760Z,75.99
2023-04-16T23:37:54.712Z,74.93
2023-04-16T23:40:21.552Z,74.92
2023-04-16T23:42:48.177Z,74.94
2023-04-16T23:45:14.907Z,73.79
2023-04-16T23:47:41.600Z,75.68
2023-04-16T23:50:09.173Z,75.51
2023-04-16T23:52:35.817Z,76.31
2023-04-16T23:55:02.457Z,77.49
2023-04-16T23:57:29.087Z,76.98
2023-04-16T23:59:55.673Z,76.71
